createdAt,value
2018-05-23T00:01:11.666Z,9.67
2018-05-23T00:03:39.956Z,10.23
2018-05-23T00:06:08.316Z,9.60
2018-05-23T00:08:36.599Z,9.23
2018-05-23T00:11:04.887Z,9.90
2018-05-23T00:13:33.207Z,9.70
2018-05-23T00:16:01.496Z,10.20
2018-05-23T00:18:30.542Z,9.40
2018-05-23T00:20:58.871Z,10.37
2018-05-23T00:23:27.923Z,10.63
2018-05-23T00:25:56.214Z,11.70
2018-05-23T00:28:24.526Z,10.77
2018-05-23T00:30:53.585Z,10.47
2018-05-23T00:33:21.886Z,8.87
2018-05-23T00:48:40.428Z,8.73
2018-05-23T00:51:09.482Z,9.00
2018-05-23T00:53:37.762Z,8.90
2018-05-23T00:56:06.063Z,9.20
2018-05-23T00:58:34.355Z,9.20
2018-05-23T01:01:03.431Z,10.37
2018-05-23T01:03:31.714Z,12.30
2018-05-23T01:06:00.035Z,10.90
2018-05-23T01:08:28.319Z,9.93
2018-05-23T01:10:56.606Z,11.60
2018-05-23T01:13:24.934Z,11.17
2018-05-23T01:15:53.224Z,11.77
2018-05-23T01:18:21.510Z,11.00
2018-05-23T01:20:49.891Z,11.10
2018-05-23T01:23:18.183Z,11.73
2018-05-23T01:25:46.470Z,11.53
2018-05-23T01:28:14.799Z,11.30
2018-05-23T01:30:43.082Z,11.83
2018-05-23T01:33:11.380Z,11.37
2018-05-23T01:35:39.706Z,12.67
2018-05-23T01:38:07.998Z,13.23
2018-05-23T01:40:36.286Z,14.57
2018-05-23T01:43:05.392Z,15.57
2018-05-23T01:45:34.455Z,15.07
2018-05-23T01:48:02.756Z,15.47
2018-05-23T01:50:31.883Z,15.30
2018-05-23T01:53:00.179Z,15.20
2018-05-23T01:55:28.527Z,16.07
2018-05-23T01:57:56.823Z,17.60
2018-05-23T02:00:25.119Z,15.40
2018-05-23T02:02:53.412Z,16.93
2018-05-23T02:05:21.733Z,17.53
2018-05-23T02:07:50.035Z,18.50
2018-05-23T02:10:25.227Z,17.63
2018-05-23T02:12:54.274Z,18.43
2018-05-23T02:15:22.581Z,18.40
2018-05-23T02:17:50.875Z,17.53
2018-05-23T02:20:19.199Z,14.70
2018-05-23T02:22:47.542Z,16.63
2018-05-23T02:25:15.839Z,16.53
2018-05-23T02:27:44.127Z,16.90
2018-05-23T02:30:12.619Z,16.07
2018-05-23T02:32:40.822Z,19.20
2018-05-23T02:35:09.115Z,17.00
2018-05-23T02:37:37.432Z,17.53
2018-05-23T02:40:05.729Z,19.00
2018-05-23T02:42:34.069Z,18.83
2018-05-23T02:45:02.368Z,17.87
2018-05-23T02:47:30.663Z,18.97
2018-05-23T02:49:58.990Z,17.73
2018-05-23T02:52:27.278Z,16.43
2018-05-23T02:54:55.573Z,19.10
2018-05-23T02:57:23.906Z,18.00
2018-05-23T02:59:52.201Z,19.17
2018-05-23T03:02:21.254Z,20.40
2018-05-23T03:04:49.570Z,19.37
2018-05-23T03:07:18.642Z,19.87
2018-05-23T03:09:46.930Z,22.50
2018-05-23T03:12:15.263Z,19.80
2018-05-23T03:14:43.562Z,16.43
2018-05-23T03:17:11.854Z,17.33
2018-05-23T03:19:40.197Z,16.47
2018-05-23T03:22:08.540Z,15.03
2018-05-23T03:24:36.778Z,16.30
2018-05-23T03:27:05.119Z,17.30
2018-05-23T03:29:33.410Z,18.27
2018-05-23T03:32:01.703Z,18.33
2018-05-23T03:34:30.019Z,19.27
2018-05-23T03:36:58.307Z,18.70
2018-05-23T03:39:26.667Z,16.53
2018-05-23T03:41:54.946Z,16.63
2018-05-23T03:44:23.229Z,15.47
2018-05-23T03:46:52.315Z,15.33
2018-05-23T03:49:20.602Z,15.47
2018-05-23T03:54:52.027Z,16.17
2018-05-23T03:57:20.256Z,15.97
2018-05-23T04:00:06.107Z,15.00
2018-05-23T04:02:51.892Z,14.47
2018-05-23T04:05:37.715Z,14.20
2018-05-23T04:08:06.703Z,15.13
2018-05-23T04:10:34.931Z,15.63
2018-05-23T04:13:03.198Z,13.27
2018-05-23T04:15:31.556Z,14.67
2018-05-23T04:18:00.427Z,13.60
2018-05-23T04:20:28.707Z,14.30
2018-05-23T04:22:56.935Z,14.03
2018-05-23T04:25:25.163Z,12.97
2018-05-23T04:27:53.436Z,13.40
2018-05-23T04:30:22.414Z,14.27
2018-05-23T04:32:50.642Z,15.70
2018-05-23T04:35:18.899Z,13.33
2018-05-23T04:37:47.130Z,14.40
2018-05-23T04:40:15.356Z,12.67
2018-05-23T04:42:43.604Z,12.87
2018-05-23T04:45:11.836Z,11.93
2018-05-23T04:47:40.072Z,12.63
2018-05-23T04:50:08.331Z,13.07
2018-05-23T04:52:37.335Z,12.90
2018-05-23T04:55:05.559Z,13.27
2018-05-23T04:57:33.808Z,12.40
2018-05-23T05:00:02.051Z,12.50
2018-05-23T05:02:31.027Z,12.63
2018-05-23T05:04:59.288Z,11.17
2018-05-23T05:07:27.524Z,11.97
2018-05-23T05:09:55.767Z,11.90
2018-05-23T05:12:24.017Z,12.10
2018-05-23T05:14:52.232Z,13.67
2018-05-23T05:17:20.454Z,10.53
2018-05-23T05:19:48.728Z,12.10
2018-05-23T05:22:16.951Z,11.30
2018-05-23T05:24:45.952Z,11.40
2018-05-23T05:27:14.186Z,12.50
2018-05-23T05:29:42.421Z,14.47
2018-05-23T05:32:10.683Z,13.73
2018-05-23T05:34:38.916Z,11.23
2018-05-23T05:37:07.135Z,12.07
2018-05-23T05:39:35.397Z,10.30
2018-05-23T05:42:03.619Z,10.53
2018-05-23T05:44:31.881Z,9.87
2018-05-23T05:47:00.945Z,10.87
2018-05-23T05:49:29.116Z,13.07
2018-05-23T05:51:57.347Z,11.43
2018-05-23T05:54:25.606Z,10.97
2018-05-23T05:56:53.835Z,11.03
2018-05-23T05:59:22.831Z,10.43
2018-05-23T06:01:51.322Z,9.40
2018-05-23T06:04:19.575Z,10.10
2018-05-23T06:06:47.852Z,9.73
2018-05-23T06:09:16.162Z,9.03
2018-05-23T06:11:44.798Z,10.10
2018-05-23T06:14:13.080Z,8.40
2018-05-23T06:16:41.577Z,8.20
2018-05-23T06:19:09.865Z,9.70
2018-05-23T06:21:38.195Z,8.43
2018-05-23T06:24:06.504Z,9.20
2018-05-23T06:26:34.803Z,10.23
2018-05-23T06:29:03.903Z,9.50
2018-05-23T06:31:32.947Z,8.57
2018-05-23T06:34:01.217Z,10.20
2018-05-23T06:36:29.531Z,10.43
2018-05-23T06:38:57.896Z,10.13
2018-05-23T06:41:26.116Z,10.57
2018-05-23T06:43:54.339Z,10.80
2018-05-23T06:46:22.598Z,10.70
2018-05-23T06:48:50.828Z,10.57
2018-05-23T06:51:19.059Z,9.87
2018-05-23T06:53:47.284Z,9.60
2018-05-23T06:56:16.276Z,10.97
2018-05-23T06:58:44.508Z,11.87
2018-05-23T07:01:12.931Z,11.27
2018-05-23T07:03:41.919Z,9.77
2018-05-23T07:06:10.142Z,9.33
2018-05-23T07:08:38.399Z,10.53
2018-05-23T07:11:06.709Z,10.50
2018-05-23T07:13:35.649Z,10.77
2018-05-23T07:16:03.907Z,10.10
2018-05-23T07:18:32.147Z,10.87
2018-05-23T07:21:00.371Z,10.93
2018-05-23T07:23:29.496Z,11.00
2018-05-23T07:25:57.833Z,9.63
2018-05-23T07:28:25.953Z,12.30
2018-05-23T07:30:54.207Z,12.40
2018-05-23T07:33:22.435Z,10.60
2018-05-23T07:35:50.667Z,12.77
2018-05-23T07:38:18.927Z,14.50
2018-05-23T07:40:47.919Z,14.57
2018-05-23T07:43:16.142Z,14.37
2018-05-23T07:45:44.481Z,16.30
2018-05-23T07:48:12.647Z,13.90
2018-05-23T07:50:41.637Z,13.63
2018-05-23T07:53:09.895Z,14.40
2018-05-23T07:55:38.114Z,12.80
2018-05-23T07:58:06.352Z,14.43
2018-05-23T08:00:34.607Z,14.73
2018-05-23T08:03:02.831Z,15.73
2018-05-23T08:05:31.060Z,13.27
2018-05-23T08:07:59.319Z,15.03
2018-05-23T08:10:27.554Z,13.53
2018-05-23T08:12:55.782Z,13.40
2018-05-23T08:15:24.047Z,13.27
2018-05-23T08:17:52.284Z,12.30
2018-05-23T08:20:20.515Z,11.60
2018-05-23T08:22:48.774Z,11.87
2018-05-23T08:25:17.003Z,11.80
2018-05-23T08:27:46.008Z,11.10
2018-05-23T08:30:14.263Z,11.30
2018-05-23T08:32:42.493Z,11.03
2018-05-23T08:35:10.712Z,10.77
2018-05-23T08:37:39.739Z,10.40
2018-05-23T08:40:07.963Z,11.57
2018-05-23T08:42:36.243Z,10.87
2018-05-23T08:45:04.491Z,11.80
2018-05-23T08:47:32.715Z,10.00
2018-05-23T08:50:01.807Z,10.23
2018-05-23T08:52:30.799Z,10.40
2018-05-23T08:54:59.028Z,9.23
2018-05-23T08:57:27.276Z,7.60
2018-05-23T08:59:55.499Z,8.70
2018-05-23T09:02:23.723Z,9.27
2018-05-23T09:04:52.024Z,9.87
2018-05-23T09:07:20.199Z,10.50
2018-05-23T09:09:48.425Z,9.80
2018-05-23T09:12:16.751Z,9.07
2018-05-23T09:14:44.875Z,9.63
2018-05-23T09:17:13.135Z,8.60
2018-05-23T09:19:41.372Z,9.13
2018-05-23T09:22:09.607Z,9.90
2018-05-23T09:24:37.855Z,10.70
2018-05-23T09:27:06.071Z,9.33
2018-05-23T09:29:34.296Z,9.20
2018-05-23T09:32:02.559Z,10.50
2018-05-23T09:34:30.791Z,10.40
2018-05-23T09:36:59.790Z,10.03
2018-05-23T09:39:28.020Z,9.80
2018-05-23T09:41:56.247Z,9.10
2018-05-23T09:44:25.255Z,9.03
2018-05-23T09:46:53.482Z,9.60
2018-05-23T09:49:21.703Z,9.37
2018-05-23T09:51:50.043Z,11.03
2018-05-23T09:54:18.275Z,12.77
2018-05-23T09:56:46.499Z,11.10
2018-05-23T09:59:14.759Z,12.00
2018-05-23T10:01:42.980Z,12.80
2018-05-23T10:04:11.212Z,13.50
2018-05-23T10:06:39.452Z,13.77
2018-05-23T10:09:07.680Z,15.20
2018-05-23T10:11:35.894Z,15.17
2018-05-23T10:14:04.161Z,14.97
2018-05-23T10:16:32.385Z,16.00
2018-05-23T10:19:00.611Z,14.67
2018-05-23T10:21:28.867Z,14.73
2018-05-23T10:23:57.863Z,13.80
2018-05-23T10:26:26.114Z,13.17
2018-05-23T10:28:54.380Z,13.43
2018-05-23T10:31:22.612Z,12.67
2018-05-23T10:33:50.843Z,14.40
2018-05-23T10:36:19.106Z,12.53
2018-05-23T10:38:47.339Z,13.47
2018-05-23T10:41:15.563Z,13.00
2018-05-23T10:43:43.815Z,15.33
2018-05-23T10:46:12.068Z,12.53
2018-05-23T10:48:41.050Z,15.13
2018-05-23T10:51:09.311Z,13.27
2018-05-23T10:53:37.539Z,16.00
2018-05-23T10:56:05.764Z,14.77
2018-05-23T10:58:34.784Z,10.57
2018-05-23T11:01:03.012Z,12.20
2018-05-23T11:03:31.241Z,14.60
2018-05-23T11:05:59.567Z,12.67
2018-05-23T11:08:27.736Z,12.97
2018-05-23T11:10:55.960Z,13.70
2018-05-23T11:13:24.198Z,12.53
2018-05-23T11:15:52.536Z,15.97
2018-05-23T11:18:20.764Z,12.87
2018-05-23T11:20:49.008Z,12.03
2018-05-23T11:23:17.242Z,13.20
2018-05-23T11:25:45.474Z,12.77
2018-05-23T11:28:13.735Z,12.20
2018-05-23T11:30:41.954Z,13.10
2018-05-23T11:33:10.187Z,13.70
2018-05-23T11:35:38.436Z,13.13
2018-05-23T11:38:06.660Z,14.50
2018-05-23T11:40:34.890Z,14.70
2018-05-23T11:43:03.146Z,13.03
2018-05-23T11:45:31.375Z,13.73
2018-05-23T11:47:59.599Z,12.27
2018-05-23T11:50:27.854Z,12.30
2018-05-23T11:52:56.852Z,12.33
2018-05-23T11:55:25.075Z,14.70
2018-05-23T11:57:53.326Z,11.93
2018-05-23T12:00:21.568Z,11.30
2018-05-23T12:02:50.558Z,10.90
2018-05-23T12:05:18.819Z,11.63
2018-05-23T12:07:47.051Z,12.30
2018-05-23T12:10:15.314Z,12.20
2018-05-23T12:12:43.523Z,12.23
2018-05-23T12:15:11.746Z,13.33
2018-05-23T12:17:39.975Z,11.13
2018-05-23T12:20:08.671Z,11.30
2018-05-23T12:22:36.902Z,13.23
2018-05-23T12:25:05.132Z,10.30
2018-05-23T12:27:33.387Z,11.23
2018-05-23T12:30:01.620Z,11.80
2018-05-23T12:32:29.843Z,13.53
2018-05-23T12:34:58.107Z,12.70
2018-05-23T12:37:26.339Z,12.87
2018-05-23T12:39:55.327Z,11.60
2018-05-23T12:42:23.568Z,11.23
2018-05-23T12:44:51.796Z,12.20
2018-05-23T12:47:20.046Z,11.30
2018-05-23T12:49:48.332Z,11.07
2018-05-23T12:52:17.322Z,12.03
2018-05-23T12:54:45.549Z,11.57
2018-05-23T12:57:13.795Z,13.67
2018-05-23T12:59:42.787Z,12.40
2018-05-23T13:02:11.012Z,12.63
2018-05-23T13:04:39.275Z,12.47
2018-05-23T13:07:07.500Z,10.60
2018-05-23T13:09:36.503Z,11.50
2018-05-23T13:12:04.759Z,10.73
2018-05-23T13:14:32.994Z,11.17
2018-05-23T13:17:01.611Z,11.87
2018-05-23T13:19:29.844Z,10.97
2018-05-23T13:21:58.066Z,10.73
2018-05-23T13:24:26.330Z,10.57
2018-05-23T13:26:54.561Z,10.87
2018-05-23T13:29:22.783Z,11.60
2018-05-23T13:31:51.054Z,10.27
2018-05-23T13:34:19.263Z,10.03
2018-05-23T13:36:47.491Z,10.10
2018-05-23T13:39:15.731Z,10.60
2018-05-23T13:41:43.960Z,11.43
2018-05-23T13:44:12.183Z,11.40
2018-05-23T13:46:40.448Z,10.33
2018-05-23T13:49:08.683Z,10.37
2018-05-23T13:51:36.908Z,8.90
2018-05-23T13:54:05.156Z,8.73
2018-05-23T13:56:33.374Z,9.77
2018-05-23T13:59:01.599Z,11.37
2018-05-23T14:01:29.855Z,9.17
2018-05-23T14:03:58.083Z,8.30
2018-05-23T14:06:26.306Z,9.57
2018-05-23T14:08:54.542Z,10.40
2018-05-23T14:11:22.762Z,8.60
2018-05-23T14:13:51.007Z,8.70
2018-05-23T14:16:19.240Z,9.63
2018-05-23T14:18:47.462Z,8.10
2018-05-23T14:21:15.727Z,10.23
2018-05-23T14:23:43.954Z,8.60
2018-05-23T14:26:12.182Z,9.80
2018-05-23T14:28:40.435Z,8.70
2018-05-23T14:31:09.423Z,8.70
2018-05-23T14:33:37.646Z,10.63
2018-05-23T14:36:05.903Z,9.00
2018-05-23T14:38:34.122Z,8.80
2018-05-23T14:41:02.349Z,9.20
2018-05-23T14:43:30.614Z,9.73
2018-05-23T14:45:58.830Z,8.60
2018-05-23T14:48:27.815Z,9.20
2018-05-23T14:50:56.055Z,9.23
2018-05-23T14:53:24.274Z,9.40
2018-05-23T14:55:52.530Z,9.40
2018-05-23T14:58:21.295Z,9.20
2018-05-23T15:00:49.523Z,8.90
2018-05-23T15:03:17.744Z,8.80
2018-05-23T15:05:46.767Z,9.40
2018-05-23T15:08:14.992Z,9.20
2018-05-23T15:10:43.216Z,9.90
2018-05-23T15:13:11.630Z,8.47
2018-05-23T15:15:39.857Z,9.80
2018-05-23T15:18:08.074Z,9.27
2018-05-23T15:20:36.326Z,8.57
2018-05-23T15:23:04.551Z,8.17
2018-05-23T15:25:32.776Z,9.07
2018-05-23T15:28:01.025Z,8.30
2018-05-23T15:30:30.020Z,9.90
2018-05-23T15:32:59.003Z,9.70
2018-05-23T15:35:27.378Z,8.57
2018-05-23T15:37:56.367Z,8.33
2018-05-23T15:40:24.588Z,9.63
2018-05-23T15:42:52.838Z,10.27
2018-05-23T15:45:21.815Z,9.60
2018-05-23T15:47:50.051Z,10.27
2018-05-23T15:50:18.604Z,8.57
2018-05-23T15:52:46.828Z,8.93
2018-05-23T15:55:15.051Z,8.57
2018-05-23T15:57:43.315Z,9.00
2018-05-23T16:00:12.300Z,7.77
2018-05-23T16:02:40.526Z,9.90
2018-05-23T16:05:08.788Z,9.90
2018-05-23T16:07:37.014Z,9.10
2018-05-23T16:10:05.244Z,9.57
2018-05-23T16:12:33.639Z,7.80
2018-05-23T16:15:01.840Z,9.23
2018-05-23T16:17:30.059Z,9.13
2018-05-23T16:19:58.492Z,9.53
2018-05-23T16:22:26.710Z,10.30
2018-05-23T16:24:54.942Z,9.80
2018-05-23T16:27:23.195Z,9.00
2018-05-23T16:29:51.412Z,8.47
2018-05-23T16:32:19.639Z,8.63
2018-05-23T16:34:47.900Z,9.60
2018-05-23T16:37:16.119Z,9.90
2018-05-23T16:39:44.346Z,10.20
2018-05-23T16:42:12.579Z,8.83
2018-05-23T16:44:40.790Z,8.33
2018-05-23T16:47:09.015Z,8.20
2018-05-23T16:49:37.257Z,10.03
2018-05-23T16:52:05.510Z,9.87
2018-05-23T16:54:33.716Z,10.20
2018-05-23T16:57:01.980Z,10.67
2018-05-23T16:59:30.233Z,11.00
2018-05-23T17:01:59.226Z,11.00
2018-05-23T17:04:27.711Z,10.10
2018-05-23T17:06:55.928Z,11.40
2018-05-23T17:09:24.156Z,11.17
2018-05-23T17:11:53.608Z,10.50
2018-05-23T17:14:21.827Z,11.07
2018-05-23T17:16:50.057Z,10.77
2018-05-23T17:19:18.311Z,11.83
2018-05-23T17:21:46.551Z,10.60
2018-05-23T17:24:14.773Z,12.83
2018-05-23T17:26:43.019Z,11.50
2018-05-23T17:29:11.247Z,12.10
2018-05-23T17:31:39.475Z,12.07
2018-05-23T17:34:07.739Z,12.77
2018-05-23T17:36:36.727Z,13.10
2018-05-23T17:39:04.959Z,13.53
2018-05-23T17:41:33.211Z,13.70
2018-05-23T17:44:01.441Z,12.70
2018-05-23T17:46:29.673Z,15.90
2018-05-23T17:48:57.910Z,12.43
2018-05-23T17:51:26.127Z,15.00
2018-05-23T17:53:54.382Z,13.83
2018-05-23T17:56:22.631Z,13.33
2018-05-23T17:58:51.618Z,12.77
2018-05-23T18:01:19.848Z,11.10
2018-05-23T18:03:48.107Z,11.63
2018-05-23T18:06:16.346Z,13.40
2018-05-23T18:08:44.573Z,11.73
2018-05-23T18:11:12.873Z,13.63
2018-05-23T18:13:41.070Z,11.43
2018-05-23T18:16:09.286Z,11.47
2018-05-23T18:18:37.543Z,10.87
2018-05-23T18:21:06.535Z,12.03
2018-05-23T18:23:34.871Z,12.00
2018-05-23T18:26:03.027Z,12.47
2018-05-23T18:28:31.289Z,12.07
2018-05-23T18:30:59.478Z,13.00
2018-05-23T18:33:27.709Z,10.50
2018-05-23T18:35:55.931Z,11.73
2018-05-23T18:38:24.179Z,11.17
2018-05-23T18:40:52.443Z,10.27
2018-05-23T18:43:21.481Z,10.97
2018-05-23T18:45:49.662Z,10.70
2018-05-23T18:48:17.935Z,9.90
2018-05-23T18:50:46.174Z,10.47
2018-05-23T18:53:15.162Z,11.80
2018-05-23T18:55:43.434Z,11.23
2018-05-23T18:58:11.667Z,11.17
2018-05-23T19:00:39.892Z,10.70
2018-05-23T19:03:08.928Z,10.17
2018-05-23T19:05:37.146Z,10.50
2018-05-23T19:08:05.379Z,10.17
2018-05-23T19:10:33.639Z,10.97
2018-05-23T19:13:01.871Z,10.30
2018-05-23T19:15:30.863Z,11.17
2018-05-23T19:17:59.127Z,11.63
2018-05-23T19:20:27.357Z,9.80
2018-05-23T19:22:55.591Z,11.80
2018-05-23T19:25:23.845Z,10.33
2018-05-23T19:27:52.064Z,10.03
2018-05-23T19:30:20.287Z,11.33
2018-05-23T19:32:48.544Z,10.80
2018-05-23T19:35:16.770Z,9.57
2018-05-23T19:37:44.994Z,9.37
2018-05-23T19:40:13.245Z,9.40
2018-05-23T19:42:41.471Z,9.73
2018-05-23T19:45:09.695Z,9.50
2018-05-23T19:47:37.967Z,10.03
2018-05-23T19:50:06.187Z,9.30
2018-05-23T19:52:34.523Z,9.43
2018-05-23T19:55:03.534Z,9.80
2018-05-23T19:57:31.762Z,10.57
2018-05-23T19:59:59.986Z,10.60
2018-05-23T20:02:28.247Z,9.70
2018-05-23T20:04:57.238Z,10.53
2018-05-23T20:07:25.465Z,10.50
2018-05-23T20:09:53.722Z,9.83
2018-05-23T20:12:21.952Z,8.90
2018-05-23T20:14:50.935Z,8.60
2018-05-23T20:17:19.630Z,9.23
2018-05-23T20:19:47.851Z,10.70
2018-05-23T20:22:16.080Z,10.20
2018-05-23T20:24:45.079Z,9.80
2018-05-23T20:27:13.299Z,9.83
2018-05-23T20:29:41.555Z,11.00
2018-05-23T20:32:09.812Z,10.93
2018-05-23T20:34:38.803Z,9.83
2018-05-23T20:37:07.036Z,10.10
2018-05-23T20:39:35.272Z,10.67
2018-05-23T20:42:03.503Z,10.63
2018-05-23T20:44:31.752Z,10.63
2018-05-23T20:46:59.972Z,10.27
2018-05-23T20:49:28.199Z,10.13
2018-05-23T20:51:56.460Z,11.03
2018-05-23T20:54:24.766Z,11.17
2018-05-23T20:56:52.916Z,11.10
2018-05-23T20:59:21.184Z,10.70
2018-05-23T21:01:49.408Z,11.00
2018-05-23T21:04:17.631Z,10.90
2018-05-23T21:06:45.889Z,11.33
2018-05-23T21:09:14.879Z,10.87
2018-05-23T21:11:43.107Z,11.67
2018-05-23T21:14:11.379Z,11.30
2018-05-23T21:16:39.607Z,11.20
2018-05-23T21:19:08.592Z,10.90
2018-05-23T21:21:36.853Z,12.20
2018-05-23T21:24:05.080Z,12.27
2018-05-23T21:26:33.303Z,11.80
2018-05-23T21:29:01.547Z,11.60
2018-05-23T21:31:29.779Z,13.67
2018-05-23T21:33:58.003Z,12.17
2018-05-23T21:36:26.267Z,12.30
2018-05-23T21:38:54.495Z,12.13
2018-05-23T21:41:22.716Z,13.20
2018-05-23T21:43:50.955Z,12.53
2018-05-23T21:46:19.183Z,13.60
2018-05-23T21:48:47.411Z,13.13
2018-05-23T21:51:16.451Z,13.00
2018-05-23T21:53:44.675Z,12.00
2018-05-23T21:56:13.127Z,13.80
2018-05-23T21:58:41.391Z,12.90
2018-05-23T22:01:13.445Z,13.77
2018-05-23T22:03:41.706Z,13.57
2018-05-23T22:06:09.932Z,13.00
2018-05-23T22:08:38.154Z,13.70
2018-05-23T22:11:06.417Z,13.07
2018-05-23T22:13:35.408Z,13.27
2018-05-23T22:16:03.632Z,14.20
2018-05-23T22:18:31.879Z,15.07
2018-05-23T22:21:00.099Z,14.47
2018-05-23T22:23:28.323Z,14.93
2018-05-23T22:25:56.586Z,14.50
2018-05-23T22:28:24.811Z,16.73
2018-05-23T22:30:53.039Z,15.03
2018-05-23T22:33:22.070Z,14.40
2018-05-23T22:35:50.300Z,15.17
2018-05-23T22:38:18.520Z,16.17
2018-05-23T22:40:46.784Z,16.53
2018-05-23T22:43:15.007Z,15.57
2018-05-23T22:45:43.240Z,15.83
2018-05-23T22:48:11.507Z,18.23
2018-05-23T22:50:39.736Z,24.47
2018-05-23T22:53:07.959Z,21.20
2018-05-23T22:55:36.222Z,23.40
2018-05-23T22:58:04.455Z,24.37
2018-05-23T23:00:32.679Z,21.77
2018-05-23T23:03:00.935Z,21.97
2018-05-23T23:05:29.180Z,22.23
2018-05-23T23:07:57.407Z,22.30
2018-05-23T23:10:25.639Z,23.77
2018-05-23T23:12:53.878Z,22.47
2018-05-23T23:15:22.100Z,24.07
2018-05-23T23:17:50.358Z,25.03
2018-05-23T23:20:18.583Z,23.60
2018-05-23T23:22:46.809Z,23.80
2018-05-23T23:25:15.061Z,24.03
2018-05-23T23:27:43.426Z,25.33
2018-05-23T23:30:11.515Z,22.80
2018-05-23T23:32:39.877Z,23.27
2018-05-23T23:35:08.115Z,25.20
2018-05-23T23:37:36.352Z,24.27
2018-05-23T23:40:04.629Z,24.23
2018-05-23T23:42:32.839Z,23.90
2018-05-23T23:45:01.059Z,23.77
2018-05-23T23:47:29.303Z,25.90
2018-05-23T23:49:57.532Z,23.33
2018-05-23T23:52:25.753Z,27.20
2018-05-23T23:54:54.799Z,28.20
2018-05-23T23:57:23.031Z,28.03
2018-05-23T23:59:51.259Z,28.00
